Accueil
METAR-TAF:

METAR-TAF

Aéroports :

Uherské Hradiště, République Tchèque

latitude: 49-01-46N, longitude: 017-26-23E, altitude: 177 m

Observation

Le bulletin a été fait il y a 19 heures et 1 minutes, à 15:00 UTC
Vent 17 kt de nord/nord-est, variant entre nord et est
Température 14°C
Humidité 63%
Pression 1022 hPa
Visibilité 10 km ou plus
Quelques nuages à une hauteur de 2600 ft

METAR: LKKU 291500Z 03017KT 360V080 9999 FEW026 14/07 Q1022

Heure: 12:01 (10:01 UTC)


TAF: absent

Observations et prévisions météorologiques de plus de 4000 aéroports (messages METAR et TAF).

Les stations disponibles sont représentées par des disques jaunes et rouges sur la carte.

Passer la souris dessus pour voir le nom de la station.

Cliquer dessus pour voir les observations et prévisions météorologiques.

Pour changer de carte: cliquez sur les boutons verts avec une croix noire pour zoomer, sur le bouton vert avec un tiret pour effectuer un zoom arrière, ou sur les flèches vertes pour les cartes adjacentes.


METAR-TAF: